Time;durP1;ratioP1;P1;durP2;ratioP2;P2;SDS_P1;SDS_P2;PMS_P1;PMS_P2;Temp;Humidity;BMP_temperature;BMP_pressure;BME280_temperature;BME280_humidity;BME280_pressure;Samples;Min_cycle;Max_cycle;Signal;HPM_P1;HPM_P2
2024/01/23 00:02:09;;;;;;;25.00;5.30;;;6.70;99.90;;;;;;5075536;28;20198;-72
2024/01/23 00:04:35;;;;;;;20.40;4.50;;;6.70;99.90;;;;;;5070895;28;20051;-72
2024/01/23 00:07:01;;;;;;;14.75;4.20;;;6.70;99.90;;;;;;5072287;28;20048;-71
2024/01/23 00:09:27;;;;;;;22.52;4.43;;;6.80;99.90;;;;;;5062724;28;20028;-72
2024/01/23 00:11:54;;;;;;;23.83;5.13;;;6.80;99.90;;;;;;5054485;28;20047;-71
2024/01/23 00:14:19;;;;;;;18.42;4.13;;;6.80;99.90;;;;;;5064230;28;20094;-71
2024/01/23 00:16:45;;;;;;;19.25;4.47;;;6.80;99.90;;;;;;5073697;28;20630;-72
2024/01/23 00:19:11;;;;;;;16.77;4.47;;;6.80;99.90;;;;;;5086859;28;20406;-72
2024/01/23 00:21:37;;;;;;;16.98;4.32;;;6.90;99.90;;;;;;5071104;28;20044;-72
2024/01/23 00:24:03;;;;;;;20.02;4.05;;;6.90;99.90;;;;;;5057889;28;20072;-72
2024/01/23 00:26:29;;;;;;;16.02;4.32;;;6.90;99.90;;;;;;5051910;28;20078;-71
2024/01/23 00:28:54;;;;;;;21.75;4.85;;;6.90;99.90;;;;;;5068918;28;20170;-71
2024/01/23 00:31:20;;;;;;;16.88;4.55;;;6.90;99.90;;;;;;5061582;28;20052;-71
2024/01/23 00:33:46;;;;;;;18.95;4.80;;;6.90;99.90;;;;;;5083648;28;20047;-71
2024/01/23 00:36:12;;;;;;;20.48;4.20;;;7.00;99.90;;;;;;5069587;28;20040;-71
2024/01/23 00:38:38;;;;;;;22.42;4.00;;;7.00;99.90;;;;;;5070511;28;20036;-71
2024/01/23 00:41:04;;;;;;;19.08;4.95;;;7.00;99.90;;;;;;5069322;28;20498;-72
2024/01/23 00:43:30;;;;;;;17.02;3.95;;;7.00;99.90;;;;;;5075142;28;20395;-71
2024/01/23 00:45:56;;;;;;;15.82;3.88;;;7.10;99.90;;;;;;5080479;28;20604;-72
2024/01/23 00:48:21;;;;;;;14.98;4.30;;;7.10;99.90;;;;;;5071729;28;20093;-72
2024/01/23 00:50:47;;;;;;;18.02;4.25;;;7.10;99.90;;;;;;5060164;28;20086;-71
2024/01/23 00:53:13;;;;;;;21.92;3.95;;;7.10;99.90;;;;;;5083474;28;20047;-72
2024/01/23 00:55:39;;;;;;;14.52;3.63;;;7.00;99.90;;;;;;5057808;28;20889;-72
2024/01/23 00:58:05;;;;;;;18.80;4.00;;;7.10;99.90;;;;;;5078741;28;20054;-71
2024/01/23 01:00:30;;;;;;;14.25;4.10;;;7.10;99.90;;;;;;5058088;28;20084;-71
2024/01/23 01:02:56;;;;;;;15.88;4.45;;;7.10;99.90;;;;;;5070779;28;20590;-72
2024/01/23 01:05:22;;;;;;;16.48;4.13;;;7.00;99.90;;;;;;5056421;28;20062;-71
2024/01/23 01:07:48;;;;;;;19.08;4.57;;;7.00;99.90;;;;;;5059140;28;20044;-72
2024/01/23 01:10:13;;;;;;;18.95;3.92;;;6.90;99.90;;;;;;5070360;28;20059;-72
2024/01/23 01:12:39;;;;;;;17.63;4.78;;;6.90;99.90;;;;;;5065510;28;20711;-71
2024/01/23 01:15:05;;;;;;;17.55;5.47;;;6.90;99.90;;;;;;5066879;28;20098;-72
2024/01/23 01:17:32;;;;;;;22.48;4.60;;;6.90;99.90;;;;;;5073754;28;20506;-72
2024/01/23 01:19:58;;;;;;;24.48;4.88;;;6.90;99.90;;;;;;5067053;28;20154;-71
2024/01/23 01:22:23;;;;;;;19.55;4.00;;;6.90;99.90;;;;;;5073074;28;20506;-71
2024/01/23 01:24:49;;;;;;;20.83;4.95;;;7.00;99.90;;;;;;5059811;28;20129;-71
2024/01/23 01:27:15;;;;;;;17.83;4.43;;;7.00;99.90;;;;;;5064788;28;20032;-72
2024/01/23 01:29:41;;;;;;;20.65;4.70;;;7.00;99.90;;;;;;5050515;28;20139;-71
2024/01/23 01:32:07;;;;;;;15.35;4.07;;;7.00;99.90;;;;;;5081163;28;20055;-80
2024/01/23 01:34:33;;;;;;;20.92;5.07;;;7.00;99.90;;;;;;5065453;28;20127;-79
2024/01/23 01:36:59;;;;;;;19.02;4.40;;;7.00;99.90;;;;;;5068417;28;20122;-79
2024/01/23 01:39:24;;;;;;;18.70;4.28;;;7.00;99.90;;;;;;5074793;28;20044;-79
2024/01/23 01:41:54;;;;;;;20.65;4.38;;;7.00;99.90;;;;;;5057166;28;20048;-79
2024/01/23 01:44:21;;;;;;;22.27;3.88;;;7.10;99.90;;;;;;5069329;28;20048;-80
2024/01/23 01:46:48;;;;;;;21.17;4.72;;;7.00;99.90;;;;;;5070879;28;20523;-79
2024/01/23 01:49:16;;;;;;;20.27;4.68;;;7.00;99.90;;;;;;5055181;28;20055;-79
2024/01/23 01:51:43;;;;;;;23.15;4.55;;;7.00;99.90;;;;;;5076271;28;20114;-79
2024/01/23 01:54:09;;;;;;;16.48;4.57;;;7.00;99.90;;;;;;5066898;28;20056;-80
2024/01/23 01:56:35;;;;;;;20.42;4.65;;;6.90;99.90;;;;;;5070698;28;20193;-79
2024/01/23 01:59:01;;;;;;;18.73;5.03;;;6.90;99.90;;;;;;5068831;28;20114;-79
2024/01/23 02:01:27;;;;;;;17.35;4.63;;;6.90;99.90;;;;;;5070511;28;20152;-78
2024/01/23 02:03:53;;;;;;;21.83;5.00;;;6.80;99.90;;;;;;5057440;28;20205;-78
2024/01/23 02:06:20;;;;;;;19.10;4.75;;;6.80;99.90;;;;;;5071270;28;20123;-79
2024/01/23 02:08:48;;;;;;;22.95;5.07;;;6.80;99.90;;;;;;5071372;28;20047;-79
2024/01/23 02:11:14;;;;;;;15.50;4.13;;;6.70;99.90;;;;;;5078419;28;20051;-78
2024/01/23 02:13:43;;;;;;;21.50;4.60;;;6.70;99.90;;;;;;5050527;28;20126;-78
2024/01/23 02:16:10;;;;;;;24.45;5.38;;;6.70;99.90;;;;;;5064039;28;20200;-81
2024/01/23 02:18:36;;;;;;;20.20;4.55;;;6.70;99.90;;;;;;5071870;28;20522;-79
2024/01/23 02:21:02;;;;;;;20.88;5.10;;;6.70;99.90;;;;;;5066003;28;20032;-79
2024/01/23 02:23:31;;;;;;;16.10;4.72;;;6.70;99.90;;;;;;5073405;28;20044;-79
2024/01/23 02:25:57;;;;;;;20.98;4.95;;;6.70;99.90;;;;;;5072160;28;20074;-80
2024/01/23 02:28:23;;;;;;;19.33;4.57;;;6.60;99.90;;;;;;5057860;28;20049;-80
2024/01/23 02:30:49;;;;;;;21.52;4.78;;;6.60;99.90;;;;;;5064596;28;20100;-79
2024/01/23 02:33:15;;;;;;;19.92;5.30;;;6.60;99.90;;;;;;5065370;28;20052;-79
2024/01/23 02:35:41;;;;;;;21.73;5.38;;;6.60;99.90;;;;;;5065819;28;20039;-80
2024/01/23 02:38:08;;;;;;;23.85;5.13;;;6.50;99.90;;;;;;5056506;28;20486;-79
2024/01/23 02:40:34;;;;;;;15.95;4.45;;;6.60;99.90;;;;;;5071878;28;20120;-79
2024/01/23 02:43:00;;;;;;;19.65;5.00;;;6.60;99.90;;;;;;5051042;28;20043;-79
2024/01/23 02:45:26;;;;;;;21.83;5.20;;;6.50;99.90;;;;;;5066986;28;20060;-79
2024/01/23 02:47:52;;;;;;;24.90;5.85;;;6.50;99.90;;;;;;5066098;28;20039;-80
2024/01/23 02:50:18;;;;;;;25.60;5.68;;;6.40;99.90;;;;;;5065231;28;20075;-78
2024/01/23 02:52:43;;;;;;;22.52;5.13;;;6.50;99.90;;;;;;5069636;28;20399;-79
2024/01/23 02:55:09;;;;;;;24.08;5.40;;;6.50;99.90;;;;;;5070294;28;20072;-79
2024/01/23 02:57:35;;;;;;;23.95;5.15;;;6.40;99.90;;;;;;5045016;28;20499;-79
2024/01/23 03:00:01;;;;;;;24.45;5.45;;;6.50;99.90;;;;;;5051344;28;20110;-79
2024/01/23 03:02:28;;;;;;;20.60;5.45;;;6.50;99.90;;;;;;5050119;28;20513;-79
2024/01/23 03:04:54;;;;;;;17.63;4.50;;;6.50;99.90;;;;;;5063732;28;20122;-79
2024/01/23 03:07:20;;;;;;;20.02;4.97;;;6.50;99.90;;;;;;5071497;28;20454;-79
2024/01/23 03:09:46;;;;;;;21.83;4.90;;;6.50;99.90;;;;;;5061312;28;20052;-80
2024/01/23 03:12:16;;;;;;;19.85;4.60;;;6.60;99.90;;;;;;5062503;28;20048;-78
2024/01/23 03:14:43;;;;;;;17.50;4.55;;;6.60;99.90;;;;;;5068577;28;20048;-79
2024/01/23 03:17:14;;;;;;;22.98;5.75;;;6.60;99.90;;;;;;5067162;28;20047;-79
2024/01/23 03:19:41;;;;;;;17.20;4.60;;;6.60;99.90;;;;;;5055078;28;20039;-80
2024/01/23 03:22:07;;;;;;;20.60;5.15;;;6.70;99.90;;;;;;5067131;28;20040;-79
2024/01/23 03:24:33;;;;;;;23.25;5.55;;;6.70;99.90;;;;;;5074629;28;20044;-79
2024/01/23 03:26:59;;;;;;;22.17;5.10;;;6.70;99.90;;;;;;5072645;28;20822;-79
2024/01/23 03:29:25;;;;;;;20.10;5.40;;;6.70;99.90;;;;;;5076982;28;20047;-79
2024/01/23 03:31:52;;;;;;;18.58;4.88;;;6.70;99.90;;;;;;5071381;28;20039;-79
2024/01/23 03:34:21;;;;;;;20.95;4.93;;;6.80;99.90;;;;;;5071716;28;20058;-79
2024/01/23 03:36:47;;;;;;;26.15;5.68;;;6.80;99.90;;;;;;5066097;28;20135;-79
2024/01/23 03:39:13;;;;;;;20.65;4.80;;;6.80;99.90;;;;;;5064857;28;20132;-79
2024/01/23 03:41:38;;;;;;;24.65;4.68;;;6.80;99.90;;;;;;5079394;28;20047;-78
2024/01/23 03:44:08;;;;;;;25.55;4.95;;;6.80;99.90;;;;;;5041351;28;20055;-79
2024/01/23 03:46:34;;;;;;;21.42;5.47;;;6.80;99.90;;;;;;5052830;28;20040;-79
2024/01/23 03:48:59;;;;;;;17.95;5.75;;;6.80;99.90;;;;;;5066370;28;20040;-79
2024/01/23 03:51:25;;;;;;;28.48;6.05;;;6.90;99.90;;;;;;5065295;28;20601;-79
2024/01/23 03:53:51;;;;;;;21.27;5.45;;;6.90;99.90;;;;;;5066354;28;20082;-79
2024/01/23 03:56:17;;;;;;;20.17;5.18;;;6.90;99.90;;;;;;5050966;28;20083;-72
2024/01/23 03:58:43;;;;;;;21.85;4.97;;;7.00;99.90;;;;;;5065329;28;20051;-71
2024/01/23 04:01:09;;;;;;;25.60;6.78;;;7.00;99.90;;;;;;5064041;28;20113;-72
2024/01/23 04:03:35;;;;;;;26.60;5.45;;;7.00;99.90;;;;;;5067011;28;20040;-72
2024/01/23 04:06:00;;;;;;;26.15;6.35;;;7.00;99.90;;;;;;5069570;28;20120;-72
2024/01/23 04:08:26;;;;;;;22.77;6.50;;;7.00;99.90;;;;;;5068933;28;20079;-72
2024/01/23 04:10:52;;;;;;;25.35;6.30;;;7.00;99.90;;;;;;5070417;28;20459;-72
2024/01/23 04:13:18;;;;;;;28.50;6.30;;;7.00;99.90;;;;;;5073407;28;20438;-72
2024/01/23 04:15:44;;;;;;;25.50;5.50;;;7.00;99.90;;;;;;5065694;28;20041;-72
2024/01/23 04:18:10;;;;;;;22.02;5.63;;;7.00;99.90;;;;;;5075737;28;20080;-72
2024/01/23 04:20:37;;;;;;;24.58;5.32;;;7.00;99.90;;;;;;5065930;28;20047;-72
2024/01/23 04:23:04;;;;;;;25.17;5.25;;;7.00;99.90;;;;;;5073415;28;20525;-72
2024/01/23 04:25:29;;;;;;;23.00;5.75;;;7.00;99.90;;;;;;5069535;28;20541;-71
2024/01/23 04:27:57;;;;;;;20.83;5.95;;;7.00;99.90;;;;;;5062552;28;20044;-72
2024/01/23 04:30:23;;;;;;;24.90;5.90;;;7.00;99.90;;;;;;5070006;28;20047;-72
2024/01/23 04:32:49;;;;;;;21.85;5.75;;;7.00;99.90;;;;;;5065539;28;20436;-72
2024/01/23 04:35:14;;;;;;;22.20;5.68;;;7.10;99.90;;;;;;5073087;28;20055;-72
2024/01/23 04:37:40;;;;;;;23.10;5.53;;;7.10;99.90;;;;;;5060254;28;20044;-71
2024/01/23 04:40:08;;;;;;;27.60;6.55;;;7.10;99.90;;;;;;5055214;28;20516;-72
2024/01/23 04:42:34;;;;;;;22.60;5.45;;;7.10;99.90;;;;;;5079202;28;20550;-72
2024/01/23 04:45:00;;;;;;;30.30;6.35;;;7.10;99.90;;;;;;5072983;28;20055;-70
2024/01/23 04:47:26;;;;;;;19.75;5.13;;;7.10;99.90;;;;;;5068151;28;20037;-70
2024/01/23 04:49:52;;;;;;;25.02;6.60;;;7.10;99.90;;;;;;5067304;28;20047;-70
2024/01/23 04:52:18;;;;;;;26.20;6.70;;;7.10;99.90;;;;;;5073588;28;20109;-70
2024/01/23 04:54:44;;;;;;;28.38;6.90;;;7.10;99.90;;;;;;5072905;28;20044;-71
2024/01/23 04:57:11;;;;;;;22.27;5.97;;;7.10;99.90;;;;;;5079734;28;20036;-71
2024/01/23 04:59:36;;;;;;;30.55;7.32;;;7.20;99.90;;;;;;5077595;28;20044;-71
2024/01/23 05:02:05;;;;;;;28.50;6.28;;;7.10;99.90;;;;;;5047658;28;20142;-70
2024/01/23 05:04:31;;;;;;;25.08;6.72;;;7.10;99.90;;;;;;5067323;28;20044;-71
2024/01/23 05:06:57;;;;;;;28.92;6.25;;;7.10;99.90;;;;;;5070317;28;20032;-71
2024/01/23 05:09:23;;;;;;;27.05;6.88;;;7.10;99.90;;;;;;5053417;28;20044;-71
2024/01/23 05:11:49;;;;;;;26.27;6.57;;;7.10;99.90;;;;;;5070057;28;20040;-70
2024/01/23 05:14:17;;;;;;;29.88;6.30;;;7.10;99.90;;;;;;5070613;28;20506;-70
2024/01/23 05:16:43;;;;;;;25.45;6.10;;;7.10;99.90;;;;;;5065583;28;20037;-71
2024/01/23 05:19:12;;;;;;;23.92;6.28;;;7.20;99.90;;;;;;5064647;28;20494;-70
2024/01/23 05:21:38;;;;;;;22.60;6.00;;;7.20;99.90;;;;;;5063367;28;20086;-70
2024/01/23 05:24:04;;;;;;;27.42;5.85;;;7.20;99.90;;;;;;5070636;28;20086;-71
2024/01/23 05:26:29;;;;;;;23.33;6.25;;;7.20;99.90;;;;;;5086298;28;20047;-71
2024/01/23 05:28:55;;;;;;;29.35;6.15;;;7.20;99.90;;;;;;5069826;28;20051;-70
2024/01/23 05:31:21;;;;;;;30.02;7.10;;;7.20;99.90;;;;;;5068225;28;20078;-70
2024/01/23 05:33:47;;;;;;;27.80;6.65;;;7.20;99.90;;;;;;5067179;28;20069;-70
2024/01/23 05:36:13;;;;;;;31.33;7.15;;;7.20;99.90;;;;;;5050989;28;20051;-70
2024/01/23 05:38:39;;;;;;;27.15;6.63;;;7.20;99.90;;;;;;5077873;28;20390;-70
2024/01/23 05:41:04;;;;;;;31.83;7.63;;;7.20;99.90;;;;;;5063851;28;20112;-71
2024/01/23 05:43:30;;;;;;;29.88;7.47;;;7.30;99.90;;;;;;5057126;28;20383;-70
2024/01/23 05:45:56;;;;;;;28.15;7.40;;;7.30;99.90;;;;;;5078303;28;20047;-71
2024/01/23 05:48:22;;;;;;;29.25;6.70;;;7.30;99.90;;;;;;5067994;28;20036;-70
2024/01/23 05:50:50;;;;;;;26.63;6.93;;;7.30;99.90;;;;;;5078390;28;20542;-71
2024/01/23 05:53:16;;;;;;;29.95;6.97;;;7.20;99.90;;;;;;5054381;28;20139;-71
2024/01/23 05:55:42;;;;;;;31.90;7.30;;;7.20;99.90;;;;;;5069605;28;20438;-71
2024/01/23 05:58:09;;;;;;;30.83;6.40;;;7.30;99.90;;;;;;5066386;28;20040;-71
2024/01/23 06:00:35;;;;;;;29.88;7.43;;;7.30;99.90;;;;;;5072738;28;20067;-71
2024/01/23 06:03:00;;;;;;;33.80;7.57;;;7.30;99.90;;;;;;5066108;28;20040;-71
2024/01/23 06:05:26;;;;;;;27.25;6.35;;;7.30;99.90;;;;;;5067256;28;20747;-71
2024/01/23 06:07:52;;;;;;;30.67;7.38;;;7.30;99.90;;;;;;5054049;28;20036;-71
2024/01/23 06:10:18;;;;;;;32.85;7.75;;;7.30;99.90;;;;;;5055941;28;20342;-71
2024/01/23 06:12:44;;;;;;;31.00;7.22;;;7.30;99.90;;;;;;5054745;28;20118;-72
2024/01/23 06:15:10;;;;;;;31.95;7.45;;;7.30;99.90;;;;;;5066313;28;20036;-71
2024/01/23 06:17:37;;;;;;;30.90;7.53;;;7.20;99.90;;;;;;5072589;28;20032;-71
2024/01/23 06:20:07;;;;;;;28.17;7.55;;;7.20;99.90;;;;;;5071212;28;20028;-71
2024/01/23 06:22:34;;;;;;;;;;;7.20;99.90;;;;;;5051829;28;20491;-71
2024/01/23 06:25:18;;;;;;;32.13;6.18;;;7.20;99.90;;;;;;5061744;28;19928;-72
2024/01/23 06:27:44;;;;;;;35.08;7.43;;;7.20;99.90;;;;;;5069358;28;20691;-71
2024/01/23 06:30:11;;;;;;;27.40;7.35;;;7.10;99.90;;;;;;5066216;28;20036;-71
2024/01/23 06:32:38;;;;;;;35.05;8.35;;;7.10;99.90;;;;;;5068250;28;20105;-71
2024/01/23 06:35:05;;;;;;;37.33;9.20;;;7.10;99.90;;;;;;5065442;28;20676;-71
2024/01/23 06:37:30;;;;;;;35.78;7.80;;;7.00;99.90;;;;;;5074392;28;20672;-72
2024/01/23 06:39:56;;;;;;;30.10;6.97;;;7.00;99.90;;;;;;5055265;28;20127;-71
2024/01/23 06:42:22;;;;;;;28.25;8.27;;;7.00;99.90;;;;;;5070370;28;20563;-71
2024/01/23 06:44:47;;;;;;;34.25;8.15;;;7.00;99.90;;;;;;5066669;28;20560;-71
2024/01/23 06:47:13;;;;;;;34.53;8.00;;;6.90;99.90;;;;;;5068381;28;20047;-71
2024/01/23 06:49:39;;;;;;;33.30;7.95;;;6.90;99.90;;;;;;5057012;28;20044;-71
2024/01/23 06:52:05;;;;;;;31.42;7.70;;;6.90;99.90;;;;;;5063730;28;20039;-70
2024/01/23 06:54:30;;;;;;;30.45;8.23;;;6.90;99.90;;;;;;5073797;28;20047;-71
2024/01/23 06:56:56;;;;;;;27.80;7.07;;;6.90;99.90;;;;;;5050381;28;20047;-70
2024/01/23 06:59:22;;;;;;;36.60;7.57;;;6.80;99.90;;;;;;5066472;28;20055;-70
2024/01/23 07:01:47;;;;;;;33.30;7.75;;;6.80;99.90;;;;;;5075048;28;20043;-70
2024/01/23 07:04:13;;;;;;;33.63;7.40;;;6.70;99.90;;;;;;5073390;28;20670;-70
2024/01/23 07:06:39;;;;;;;32.10;7.38;;;6.70;99.90;;;;;;5070966;28;20047;-70
2024/01/23 07:09:05;;;;;;;33.80;8.07;;;6.70;99.90;;;;;;5074695;28;20052;-71
2024/01/23 07:11:30;;;;;;;35.83;8.23;;;6.70;99.90;;;;;;5044775;28;20135;-71
2024/01/23 07:13:56;;;;;;;36.33;8.27;;;6.70;99.90;;;;;;5053992;28;20146;-70
2024/01/23 07:16:22;;;;;;;32.08;8.18;;;6.60;99.90;;;;;;5069842;28;20072;-70
2024/01/23 07:18:48;;;;;;;35.38;8.82;;;6.60;99.90;;;;;;5056692;28;20556;-70
2024/01/23 07:21:14;;;;;;;31.27;8.13;;;6.60;99.90;;;;;;5057467;28;20602;-70
2024/01/23 07:23:39;;;;;;;32.08;6.97;;;6.60;99.90;;;;;;5068877;28;20052;-71
2024/01/23 07:26:05;;;;;;;37.35;7.88;;;6.60;99.90;;;;;;5068037;28;22612;-70
2024/01/23 07:28:31;;;;;;;33.53;7.88;;;6.50;99.90;;;;;;5065383;28;20155;-69
2024/01/23 07:30:57;;;;;;;30.67;7.22;;;6.60;99.90;;;;;;5066257;28;20106;-70
2024/01/23 07:33:23;;;;;;;34.00;8.20;;;6.60;99.90;;;;;;5066329;28;20040;-70
2024/01/23 07:35:50;;;;;;;33.50;8.15;;;6.50;99.90;;;;;;5066300;28;20067;-70
2024/01/23 07:38:16;;;;;;;36.22;7.45;;;6.50;99.90;;;;;;5072554;28;20553;-70
2024/01/23 07:40:45;;;;;;;36.75;8.18;;;6.50;99.90;;;;;;5062881;28;20047;-70
2024/01/23 07:43:10;;;;;;;34.90;7.75;;;6.40;99.90;;;;;;5062814;28;20455;-70
2024/01/23 07:45:37;;;;;;;36.88;7.97;;;6.40;99.90;;;;;;5067986;28;20158;-71
2024/01/23 07:48:03;;;;;;;34.58;8.52;;;6.40;99.90;;;;;;5054243;28;20133;-70
2024/01/23 07:50:29;;;;;;;36.97;7.32;;;6.40;99.90;;;;;;5067478;28;20044;-70
2024/01/23 07:52:54;;;;;;;32.42;8.40;;;6.40;99.90;;;;;;5053872;28;20040;-70
2024/01/23 07:55:22;;;;;;;36.08;7.82;;;6.40;99.90;;;;;;5073827;28;20044;-70
2024/01/23 07:57:48;;;;;;;32.25;7.03;;;6.30;99.90;;;;;;5064526;28;20056;-70
2024/01/23 08:00:18;;;;;;;36.97;8.45;;;6.30;99.90;;;;;;5065774;28;20040;-71
2024/01/23 08:02:44;;;;;;;39.10;8.45;;;6.30;99.90;;;;;;5068910;28;20398;-71
2024/01/23 08:05:10;;;;;;;31.30;7.78;;;6.30;99.90;;;;;;5072694;28;20522;-70
2024/01/23 08:07:37;;;;;;;31.42;7.90;;;6.30;99.90;;;;;;5063918;28;20051;-70
2024/01/23 08:10:03;;;;;;;34.75;8.07;;;6.30;99.90;;;;;;5079276;28;20047;-70
2024/01/23 08:12:29;;;;;;;32.42;7.93;;;6.30;99.90;;;;;;5068370;28;20060;-70
2024/01/23 08:14:55;;;;;;;33.13;7.00;;;6.20;99.90;;;;;;5079452;28;20044;-70
2024/01/23 08:17:21;;;;;;;33.38;8.73;;;6.20;99.90;;;;;;5069310;28;20032;-70
2024/01/23 08:19:47;;;;;;;31.67;7.18;;;6.20;99.90;;;;;;5073039;28;20047;-70
2024/01/23 08:22:13;;;;;;;32.95;7.60;;;6.20;99.90;;;;;;5067614;28;20036;-70
2024/01/23 08:24:38;;;;;;;31.88;7.13;;;6.20;99.90;;;;;;5069608;28;20036;-70
2024/01/23 08:27:05;;;;;;;33.88;8.20;;;6.20;99.90;;;;;;5069469;28;20043;-70
2024/01/23 08:29:30;;;;;;;27.77;7.38;;;6.20;99.90;;;;;;5069177;28;20147;-70
2024/01/23 08:31:56;;;;;;;31.00;7.25;;;6.20;99.90;;;;;;5055545;28;20577;-70
2024/01/23 08:34:22;;;;;;;34.60;7.43;;;6.20;99.90;;;;;;5078992;28;20494;-71
2024/01/23 08:36:48;;;;;;;31.90;8.32;;;6.20;99.90;;;;;;5077106;28;20402;-70
2024/01/23 08:39:15;;;;;;;30.42;7.88;;;6.20;99.90;;;;;;5052605;28;20043;-72
2024/01/23 08:41:41;;;;;;;37.33;8.48;;;6.30;99.90;;;;;;5072915;28;20664;-72
2024/01/23 08:44:07;;;;;;;36.80;8.52;;;6.20;99.90;;;;;;5059400;28;20127;-71
2024/01/23 08:46:34;;;;;;;30.70;7.60;;;6.20;99.90;;;;;;5077368;28;20067;-72
2024/01/23 08:49:00;;;;;;;31.50;8.30;;;6.30;99.90;;;;;;5079889;28;20113;-72
2024/01/23 08:51:28;;;;;;;34.63;8.00;;;6.30;99.90;;;;;;5079111;28;20051;-72
2024/01/23 08:53:54;;;;;;;34.92;7.97;;;6.30;99.90;;;;;;5076868;28;20040;-72
2024/01/23 08:56:24;;;;;;;33.25;8.23;;;6.40;99.90;;;;;;5070913;28;20371;-72
2024/01/23 08:58:50;;;;;;;32.38;7.40;;;6.40;99.90;;;;;;5072783;28;20048;-72
2024/01/23 09:01:17;;;;;;;31.92;7.50;;;6.40;99.90;;;;;;5080970;28;20079;-73
2024/01/23 09:03:43;;;;;;;29.38;7.85;;;6.50;99.90;;;;;;5072578;28;20390;-72
2024/01/23 09:06:10;;;;;;;42.22;8.70;;;6.50;99.90;;;;;;5071735;28;20117;-72
2024/01/23 09:08:36;;;;;;;31.92;7.68;;;6.40;99.90;;;;;;5068877;28;20123;-72
2024/01/23 09:11:02;;;;;;;34.35;8.88;;;6.50;99.90;;;;;;5075653;28;20040;-73
2024/01/23 09:13:32;;;;;;;37.58;8.23;;;6.50;99.90;;;;;;5073162;28;20151;-72
2024/01/23 09:16:01;;;;;;;37.08;8.70;;;6.50;99.90;;;;;;5070119;28;20537;-72
2024/01/23 09:18:30;;;;;;;30.47;7.67;;;6.60;99.90;;;;;;5071553;28;20052;-73
2024/01/23 09:20:59;;;;;;;34.72;8.23;;;6.60;99.90;;;;;;5077659;28;20056;-72
2024/01/23 09:23:27;;;;;;;34.65;8.75;;;6.60;99.90;;;;;;5073013;28;20047;-72
2024/01/23 09:25:53;;;;;;;34.95;7.93;;;6.60;99.90;;;;;;5079606;28;20059;-73
2024/01/23 09:28:19;;;;;;;30.25;7.70;;;6.60;99.90;;;;;;5073765;28;20040;-73
2024/01/23 09:30:45;;;;;;;29.77;7.43;;;6.70;99.90;;;;;;5077000;28;20564;-73
2024/01/23 09:33:10;;;;;;;35.22;7.75;;;6.70;99.90;;;;;;5059277;28;20044;-72
2024/01/23 09:35:36;;;;;;;34.13;7.55;;;6.70;99.90;;;;;;5063323;28;20043;-73
2024/01/23 09:38:03;;;;;;;28.13;7.72;;;6.70;99.90;;;;;;5060639;28;20101;-72
2024/01/23 09:40:29;;;;;;;32.55;8.38;;;6.80;99.90;;;;;;5074809;28;20116;-72
2024/01/23 09:42:58;;;;;;;30.23;7.90;;;6.80;99.90;;;;;;5068296;28;20047;-72
2024/01/23 09:45:28;;;;;;;34.83;9.02;;;6.80;99.90;;;;;;5066737;28;20224;-72
2024/01/23 09:47:55;;;;;;;33.22;8.15;;;6.90;99.90;;;;;;5069232;28;20086;-73
2024/01/23 09:50:28;;;;;;;30.30;7.82;;;6.90;99.90;;;;;;5071918;28;20051;-73
2024/01/23 09:52:58;;;;;;;31.70;7.97;;;6.90;99.90;;;;;;5082396;28;20570;-73
2024/01/23 09:55:24;;;;;;;30.17;6.80;;;7.00;99.90;;;;;;5073804;28;20094;-72
2024/01/23 09:57:50;;;;;;;34.47;8.00;;;7.10;99.90;;;;;;5068427;28;20487;-73
2024/01/23 10:00:16;;;;;;;34.60;7.65;;;7.10;99.90;;;;;;5078898;28;20075;-72
2024/01/23 10:02:43;;;;;;;32.40;8.05;;;7.10;99.90;;;;;;5057381;28;20596;-72
2024/01/23 10:05:17;;;;;;;30.60;8.00;;;7.20;99.90;;;;;;5065588;28;20048;-72
2024/01/23 10:07:43;;;;;;;35.40;7.82;;;7.20;99.90;;;;;;5054909;28;20384;-72
2024/01/23 10:10:15;;;;;;;33.25;7.55;;;7.10;99.90;;;;;;5064783;28;20067;-73
2024/01/23 10:12:45;;;;;;;37.88;8.65;;;7.10;99.90;;;;;;5066703;28;20079;-73
2024/01/23 10:15:16;;;;;;;40.25;8.10;;;7.20;99.90;;;;;;5068916;28;20040;-73
2024/01/23 10:17:44;;;;;;;36.65;8.55;;;7.10;99.90;;;;;;5074012;28;20455;-73
2024/01/23 10:20:10;;;;;;;27.38;7.35;;;7.10;99.90;;;;;;5059481;28;20157;-73
2024/01/23 10:22:36;;;;;;;27.13;7.72;;;7.10;99.90;;;;;;5078735;28;20185;-73
2024/01/23 10:25:03;;;;;;;31.40;8.38;;;7.20;99.90;;;;;;5062218;28;20040;-73
2024/01/23 10:27:32;;;;;;;30.17;7.82;;;7.20;99.90;;;;;;5068202;28;20044;-73
2024/01/23 10:29:58;;;;;;;37.22;9.02;;;7.10;99.90;;;;;;5054215;28;20075;-73
2024/01/23 10:32:25;;;;;;;30.88;8.65;;;7.20;99.90;;;;;;5079884;28;20099;-73
2024/01/23 10:34:54;;;;;;;27.63;7.32;;;7.20;99.90;;;;;;5078485;28;20123;-73
2024/01/23 10:37:21;;;;;;;36.50;8.50;;;7.20;99.90;;;;;;5058944;28;20040;-72
2024/01/23 10:40:12;;;;;;;27.88;7.10;;;7.20;99.90;;;;;;5065885;28;20494;-73
2024/01/23 10:42:38;;;;;;;33.88;8.52;;;7.20;99.90;;;;;;5069892;28;20040;-73
2024/01/23 10:45:06;;;;;;;39.05;8.65;;;7.20;99.90;;;;;;5066797;28;20036;-73
2024/01/23 10:47:31;;;;;;;37.60;8.63;;;7.30;99.90;;;;;;5075479;28;20067;-73
2024/01/23 10:49:57;;;;;;;29.23;7.75;;;7.30;99.90;;;;;;5068440;28;20071;-73
2024/01/23 10:52:31;;;;;;;31.27;7.65;;;7.30;99.90;;;;;;5072872;28;20040;-73
2024/01/23 10:55:03;;;;;;;31.63;7.75;;;7.40;99.90;;;;;;5070040;28;20075;-73
2024/01/23 10:57:35;;;;;;;39.25;8.13;;;7.40;99.90;;;;;;5053191;28;20456;-73
2024/01/23 11:00:06;;;;;;;34.63;7.72;;;7.40;99.90;;;;;;5068075;28;20635;-72
2024/01/23 11:02:43;;;;;;;33.20;11.65;;;7.40;99.90;;;;;;5070691;28;20050;-73
2024/01/23 11:05:09;;;;;;;41.33;15.23;;;7.40;99.90;;;;;;5065559;28;20043;-72
2024/01/23 11:07:48;;;;;;;41.67;16.77;;;7.50;99.90;;;;;;5049377;28;20450;-73
2024/01/23 11:10:17;;;;;;;50.95;27.95;;;7.50;99.90;;;;;;5075231;28;20044;-72
2024/01/23 11:12:56;;;;;;;44.70;14.88;;;7.50;99.90;;;;;;5072614;28;20101;-72
2024/01/23 11:15:22;;;;;;;50.17;23.15;;;7.60;99.90;;;;;;5067406;28;20043;-72
2024/01/23 11:17:48;;;;;;;40.40;9.82;;;7.60;99.90;;;;;;5068737;28;20054;-72
2024/01/23 11:20:16;;;;;;;102.78;48.88;;;7.70;99.90;;;;;;5071186;28;20042;-72
2024/01/23 11:22:42;;;;;;;81.75;46.70;;;7.70;99.90;;;;;;5065223;28;20044;-72
2024/01/23 11:25:11;;;;;;;134.65;94.40;;;7.80;99.90;;;;;;5070321;28;20123;-72
2024/01/23 11:27:39;;;;;;;43.72;21.88;;;7.80;99.90;;;;;;5068230;28;20031;-73
2024/01/23 11:30:10;;;;;;;55.63;35.10;;;7.80;99.90;;;;;;5068439;28;20566;-72
2024/01/23 11:32:36;;;;;;;30.83;9.80;;;7.80;99.90;;;;;;5065610;28;20125;-72
2024/01/23 11:35:05;;;;;;;42.95;23.23;;;7.80;99.90;;;;;;5063337;28;20040;-72
2024/01/23 11:37:48;;;;;;;32.20;11.68;;;7.70;99.90;;;;;;5090794;28;20050;-73
2024/01/23 11:40:34;;;;;;;34.30;9.40;;;7.80;99.90;;;;;;5068975;28;20134;-72
2024/01/23 11:43:07;;;;;;;31.17;10.23;;;7.80;99.90;;;;;;5072180;28;20635;-72
2024/01/23 11:45:36;;;;;;;31.30;10.38;;;7.80;99.90;;;;;;5076710;28;20549;-73
2024/01/23 11:48:06;;;;;;;25.48;9.95;;;7.80;99.90;;;;;;5067485;28;20501;-73
2024/01/23 11:50:36;;;;;;;27.88;8.95;;;7.80;99.90;;;;;;5071563;28;20044;-73
2024/01/23 11:53:03;;;;;;;32.33;9.35;;;7.90;99.90;;;;;;5066219;28;20628;-73
2024/01/23 11:55:29;;;;;;;30.02;8.82;;;7.90;99.90;;;;;;5055397;28;20378;-73
2024/01/23 11:57:59;;;;;;;44.30;24.02;;;7.90;99.90;;;;;;5056684;28;20490;-78
2024/01/23 12:00:27;;;;;;;41.33;17.88;;;7.90;99.90;;;;;;5084898;28;20067;-79
2024/01/23 12:02:53;;;;;;;30.13;10.45;;;7.90;99.90;;;;;;5074289;28;20059;-79
2024/01/23 12:05:19;;;;;;;36.47;12.05;;;7.90;99.90;;;;;;5065003;28;20040;-79
2024/01/23 12:07:45;;;;;;;33.72;9.55;;;7.90;99.90;;;;;;5088500;28;20040;-79
2024/01/23 12:10:14;;;;;;;29.85;9.45;;;7.90;99.90;;;;;;5057608;28;20552;-78
2024/01/23 12:12:41;;;;;;;32.03;10.00;;;7.90;99.90;;;;;;5072594;28;20040;-78
2024/01/23 12:15:08;;;;;;;31.33;7.78;;;7.90;99.90;;;;;;5070373;28;20044;-78
2024/01/23 12:17:34;;;;;;;28.35;8.98;;;7.90;99.90;;;;;;5074766;28;20036;-79
2024/01/23 12:20:09;;;;;;;32.15;9.55;;;7.90;99.90;;;;;;5069494;28;20127;-79
2024/01/23 12:22:36;;;;;;;38.45;12.10;;;7.90;99.90;;;;;;5071661;28;20047;-79
2024/01/23 12:25:06;;;;;;;29.55;9.48;;;8.00;99.90;;;;;;5085279;28;20431;-79
2024/01/23 12:27:32;;;;;;;31.13;8.93;;;8.00;99.90;;;;;;5072274;28;20052;-78
2024/01/23 12:30:05;;;;;;;30.23;9.20;;;8.00;99.90;;;;;;5065668;28;21369;-79
2024/01/23 12:32:31;;;;;;;32.55;11.02;;;8.10;99.90;;;;;;5052667;28;20078;-78
2024/01/23 12:34:58;;;;;;;36.80;13.75;;;8.10;99.90;;;;;;5075592;28;20043;-79
2024/01/23 12:37:31;;;;;;;41.67;14.80;;;8.10;99.90;;;;;;5073827;28;20040;-80
2024/01/23 12:40:05;;;;;;;35.80;14.52;;;8.10;99.90;;;;;;5064754;28;20079;-74
2024/01/23 12:42:32;;;;;;;31.35;10.15;;;8.10;99.90;;;;;;5067207;28;20044;-73
2024/01/23 12:44:57;;;;;;;41.58;17.80;;;8.10;99.90;;;;;;5068149;28;20036;-73